createdAt,value
2023-05-20T00:01:24.492Z,87.97
2023-05-20T00:06:27.254Z,88.09
2023-05-20T00:11:32.151Z,88.99
2023-05-20T00:16:34.902Z,88.74
2023-05-20T00:21:37.688Z,88.79
2023-05-20T00:26:42.365Z,88.87
2023-05-20T00:31:45.163Z,89.39
2023-05-20T00:36:47.869Z,90.29
2023-05-20T00:41:54.207Z,90.25
2023-05-20T00:46:57.440Z,90.06
2023-05-20T00:52:00.208Z,90.83
2023-05-20T00:57:05.179Z,91.17
2023-05-20T01:02:08.086Z,91.40
2023-05-20T01:07:11.450Z,91.84
2023-05-20T01:12:22.194Z,92.72
2023-05-20T01:17:27.409Z,92.43
2023-05-20T01:22:32.706Z,92.46
2023-05-20T01:27:35.822Z,93.57
2023-05-20T01:32:42.484Z,93.98
2023-05-20T01:37:48.243Z,94.06
2023-05-20T01:42:55.257Z,94.08
2023-05-20T01:47:58.370Z,95.40
2023-05-20T01:53:03.085Z,94.98
2023-05-20T01:58:06.298Z,96.23
2023-05-20T02:03:09.324Z,96.49
2023-05-20T02:08:13.459Z,96.38
2023-05-20T02:13:16.285Z,96.83
2023-05-20T02:18:19.571Z,97.59
2023-05-20T02:23:25.173Z,98.27
2023-05-20T02:28:27.984Z,98.91
2023-05-20T02:33:31.418Z,100.00
2023-05-20T02:38:35.646Z,100.00
2023-05-20T02:43:40.559Z,100.00
2023-05-20T02:48:43.272Z,100.00
2023-05-20T02:53:47.965Z,100.00
2023-05-20T02:58:51.395Z,100.00
2023-05-20T03:03:54.487Z,100.00
2023-05-20T03:09:01.508Z,100.00
2023-05-20T03:14:05.787Z,100.00
2023-05-20T03:19:10.243Z,100.00
2023-05-20T03:24:14.559Z,100.00
2023-05-20T03:29:17.911Z,100.00
2023-05-20T03:34:20.900Z,100.00
2023-05-20T03:39:26.242Z,100.00
2023-05-20T03:44:29.113Z,100.00
2023-05-20T03:49:32.139Z,100.00
2023-05-20T03:54:36.850Z,100.00
2023-05-20T03:59:40.491Z,100.00
2023-05-20T04:04:44.203Z,100.00
2023-05-20T04:09:48.246Z,100.00
2023-05-20T04:14:52.665Z,100.00
2023-05-20T04:19:56.322Z,100.00
2023-05-20T04:25:00.498Z,100.00
2023-05-20T04:30:04.062Z,100.00
2023-05-20T04:35:12.237Z,100.00
2023-05-20T04:40:20.962Z,100.00
2023-05-20T04:45:24.560Z,100.00
2023-05-20T04:50:27.359Z,100.00
2023-05-20T04:55:32.366Z,100.00
2023-05-20T05:00:35.847Z,100.00
2023-05-20T05:05:39.273Z,100.00
2023-05-20T05:10:43.916Z,100.00
2023-05-20T05:15:47.313Z,100.00
2023-05-20T05:20:50.184Z,100.00
2023-05-20T05:25:56.922Z,100.00
2023-05-20T05:31:00.940Z,100.00
2023-05-20T05:36:05.480Z,100.00
2023-05-20T05:41:09.941Z,100.00
2023-05-20T05:46:16.442Z,100.00
2023-05-20T05:51:19.853Z,100.00
2023-05-20T05:56:25.774Z,100.00
2023-05-20T06:01:30.745Z,100.00
2023-05-20T06:06:33.646Z,100.00
2023-05-20T06:11:37.734Z,100.00
2023-05-20T06:16:40.518Z,100.00
2023-05-20T06:21:44.304Z,100.00
2023-05-20T06:26:52.797Z,100.00
2023-05-20T06:31:55.601Z,100.00
2023-05-20T06:36:59.789Z,100.00
2023-05-20T06:42:04.055Z,100.00
2023-05-20T06:47:11.696Z,100.00
2023-05-20T06:52:14.670Z,100.00
2023-05-20T06:57:19.678Z,98.73
2023-05-20T07:02:22.966Z,97.74
2023-05-20T07:07:26.036Z,95.40
2023-05-20T07:12:30.527Z,96.12
2023-05-20T07:17:33.616Z,95.72
2023-05-20T07:22:36.736Z,95.56
2023-05-20T07:27:53.787Z,94.70
2023-05-20T07:32:58.982Z,93.26
2023-05-20T07:38:03.424Z,93.74
2023-05-20T07:43:10.685Z,92.70
2023-05-20T07:48:15.024Z,90.96
2023-05-20T07:53:18.174Z,89.23
2023-05-20T07:58:33.786Z,90.09
2023-05-20T08:03:42.472Z,90.52
2023-05-20T08:08:51.604Z,89.60
2023-05-20T08:14:00.334Z,91.92
2023-05-20T08:19:08.061Z,94.17
2023-05-20T08:24:11.254Z,89.84
2023-05-20T08:29:20.195Z,90.05
2023-05-20T08:34:23.282Z,90.93
2023-05-20T08:39:27.334Z,90.49
2023-05-20T08:44:35.029Z,89.79
2023-05-20T08:49:38.264Z,90.38
2023-05-20T08:54:48.723Z,89.94
2023-05-20T08:59:53.070Z,89.10
2023-05-20T09:04:56.000Z,88.90
2023-05-20T09:09:59.275Z,88.27
2023-05-20T09:15:03.690Z,86.84
2023-05-20T09:20:10.831Z,87.20
2023-05-20T09:25:16.051Z,85.88
2023-05-20T09:30:21.896Z,87.19
2023-05-20T09:35:25.330Z,87.44
2023-05-20T09:40:29.853Z,86.57
2023-05-20T09:45:34.327Z,86.57
2023-05-20T09:50:47.971Z,87.71
2023-05-20T10:01:15.308Z,85.93
2023-05-20T10:07:42.103Z,86.47
2023-05-20T10:12:54.030Z,84.77
2023-05-20T10:18:24.151Z,84.79
2023-05-20T10:23:41.244Z,85.64
2023-05-20T10:28:44.582Z,84.74
2023-05-20T10:33:49.520Z,85.94
2023-05-20T10:38:59.753Z,86.43
2023-05-20T10:44:24.497Z,83.64
2023-05-20T10:49:35.111Z,83.34
2023-05-20T10:54:43.852Z,85.48
2023-05-20T10:59:48.086Z,84.40
2023-05-20T11:04:52.165Z,83.99
2023-05-20T11:09:57.904Z,82.43
2023-05-20T11:15:02.790Z,85.31
2023-05-20T11:20:10.267Z,84.79
2023-05-20T11:25:13.139Z,87.28
2023-05-20T11:30:18.451Z,82.28
2023-05-20T11:35:27.350Z,82.52
2023-05-20T11:40:38.868Z,81.72
2023-05-20T11:45:47.150Z,84.08
2023-05-20T11:50:51.258Z,84.29
2023-05-20T11:55:56.929Z,83.51
2023-05-20T12:01:09.599Z,83.86
2023-05-20T12:06:24.052Z,83.01
2023-05-20T12:11:26.843Z,84.03
2023-05-20T12:16:29.597Z,84.11
2023-05-20T12:21:33.643Z,83.80
2023-05-20T12:26:36.502Z,84.08
2023-05-20T12:31:39.421Z,84.80
2023-05-20T12:36:46.292Z,84.10
2023-05-20T12:41:49.011Z,84.79
2023-05-20T12:47:28.655Z,83.22
2023-05-20T12:52:34.256Z,81.48
2023-05-20T12:57:40.465Z,83.16
2023-05-20T13:03:03.151Z,82.16
2023-05-20T13:08:08.897Z,80.75
2023-05-20T13:13:21.148Z,79.24
2023-05-20T13:18:26.208Z,80.89
2023-05-20T13:23:47.957Z,80.66
2023-05-20T13:28:55.568Z,80.74
2023-05-20T13:34:00.439Z,81.74
2023-05-20T13:39:04.760Z,80.72
2023-05-20T13:44:11.983Z,79.75
2023-05-20T13:49:23.504Z,80.19
2023-05-20T13:54:32.631Z,77.54
2023-05-20T13:59:46.630Z,79.17
2023-05-20T14:05:09.292Z,77.30
2023-05-20T14:15:57.292Z,76.91
2023-05-20T14:21:07.779Z,76.77
2023-05-20T14:26:15.415Z,76.43
2023-05-20T14:31:18.860Z,76.96
2023-05-20T14:36:22.222Z,76.13
2023-05-20T14:41:26.230Z,77.31
2023-05-20T14:46:29.023Z,78.53
2023-05-20T14:51:33.550Z,77.31
2023-05-20T14:56:39.489Z,77.21
2023-05-20T15:01:42.233Z,78.45
2023-05-20T15:06:45.013Z,79.76
2023-05-20T15:11:49.034Z,77.90
2023-05-20T15:16:51.772Z,78.09
2023-05-20T15:21:54.960Z,77.22
2023-05-20T15:27:05.746Z,74.79
2023-05-20T15:32:08.888Z,77.56
2023-05-20T15:37:11.629Z,78.10
2023-05-20T15:42:18.105Z,77.52
2023-05-20T15:47:21.326Z,77.76
2023-05-20T15:52:24.061Z,79.13
2023-05-20T15:57:29.193Z,76.88
2023-05-20T16:02:34.836Z,76.94
2023-05-20T16:07:39.132Z,78.73
2023-05-20T16:12:43.261Z,79.45
2023-05-20T16:17:46.037Z,79.50
2023-05-20T16:22:48.929Z,80.08
2023-05-20T16:27:53.374Z,80.54
2023-05-20T16:32:58.040Z,80.69
2023-05-20T16:38:00.785Z,81.39
2023-05-20T16:43:04.804Z,81.60
2023-05-20T16:48:07.582Z,83.08
2023-05-20T16:53:10.238Z,81.52
2023-05-20T16:58:15.727Z,81.83
2023-05-20T17:03:18.569Z,82.85
2023-05-20T17:08:21.688Z,82.35
2023-05-20T17:13:25.776Z,83.00
2023-05-20T17:18:28.962Z,85.07
2023-05-20T17:23:31.693Z,84.76
2023-05-20T17:28:35.771Z,83.84
2023-05-20T17:33:38.600Z,83.33
2023-05-20T17:38:41.431Z,84.58
2023-05-20T17:44:01.624Z,84.41
2023-05-20T17:49:04.473Z,84.97
2023-05-20T17:54:07.206Z,86.33
2023-05-20T17:59:11.484Z,85.90
2023-05-20T18:04:14.506Z,85.96
2023-05-20T18:09:17.291Z,86.44
2023-05-20T18:14:22.734Z,86.49
2023-05-20T18:19:26.194Z,87.81
2023-05-20T18:24:29.096Z,87.56
2023-05-20T18:29:33.079Z,89.20
2023-05-20T18:34:36.184Z,89.63
2023-05-20T18:39:39.004Z,89.77
2023-05-20T18:44:43.303Z,89.88
2023-05-20T18:49:51.185Z,91.08
2023-05-20T18:54:53.829Z,91.24
2023-05-20T18:59:57.989Z,90.58
2023-05-20T19:05:00.814Z,91.86
2023-05-20T19:10:04.229Z,91.37
2023-05-20T19:15:12.886Z,91.63
2023-05-20T19:20:23.636Z,92.35
2023-05-20T19:25:26.837Z,92.09
2023-05-20T19:30:32.357Z,93.17
2023-05-20T19:35:38.946Z,94.21
2023-05-20T19:40:45.002Z,94.39
2023-05-20T19:45:53.798Z,94.40
2023-05-20T19:50:59.610Z,95.16
2023-05-20T19:56:02.488Z,95.02
2023-05-20T20:01:08.947Z,95.83
2023-05-20T20:06:11.889Z,96.14
2023-05-20T20:11:14.583Z,96.63
2023-05-20T20:16:19.457Z,97.05
2023-05-20T20:21:25.519Z,96.95
2023-05-20T20:26:30.481Z,97.09
2023-05-20T20:31:35.026Z,98.14
2023-05-20T20:36:39.580Z,98.18
2023-05-20T20:41:45.081Z,97.78
2023-05-20T20:46:50.691Z,98.49
2023-05-20T20:51:54.153Z,98.97
2023-05-20T20:56:57.306Z,99.54
2023-05-20T21:02:01.569Z,100.00
2023-05-20T21:07:07.119Z,100.00
2023-05-20T21:12:09.806Z,100.00
2023-05-20T21:17:15.837Z,100.00
2023-05-20T21:22:18.587Z,100.00
2023-05-20T21:27:21.273Z,100.00
2023-05-20T21:32:25.906Z,100.00
2023-05-20T21:37:29.052Z,100.00
2023-05-20T21:42:32.504Z,100.00
2023-05-20T21:47:37.185Z,100.00
2023-05-20T21:52:40.672Z,100.00
2023-05-20T21:57:43.467Z,100.00
2023-05-20T22:02:50.685Z,100.00
2023-05-20T22:07:54.539Z,100.00
2023-05-20T22:12:58.227Z,100.00
2023-05-20T22:18:06.748Z,100.00
2023-05-20T22:23:10.405Z,100.00
2023-05-20T22:28:13.106Z,100.00
2023-05-20T22:33:17.811Z,100.00
2023-05-20T22:38:21.059Z,100.00
2023-05-20T22:43:24.667Z,100.00
2023-05-20T22:48:28.854Z,100.00
2023-05-20T22:53:31.567Z,100.00
2023-05-20T22:58:39.364Z,100.00
2023-05-20T23:03:44.166Z,100.00
2023-05-20T23:08:47.319Z,100.00
2023-05-20T23:13:51.487Z,100.00
2023-05-20T23:18:56.356Z,100.00
2023-05-20T23:23:59.064Z,100.00
2023-05-20T23:29:01.950Z,100.00
2023-05-20T23:34:08.567Z,100.00
2023-05-20T23:39:11.414Z,100.00
2023-05-20T23:44:14.195Z,100.00
2023-05-20T23:49:22.419Z,100.00
2023-05-20T23:54:25.486Z,100.00
2023-05-20T23:59:28.159Z,100.00
